createdAt,value
2017-10-02T00:00:12.358Z,22.5
2017-10-02T00:01:20.448Z,22.5
2017-10-02T00:02:28.545Z,22.4
2017-10-02T00:03:36.634Z,22.5
2017-10-02T00:04:44.709Z,22.5
2017-10-02T00:05:52.798Z,22.5
2017-10-02T00:07:00.885Z,22.5
2017-10-02T00:08:08.972Z,22.5
2017-10-02T00:09:17.061Z,22.4
2017-10-02T00:10:25.155Z,22.5
2017-10-02T00:11:33.243Z,22.5
2017-10-02T00:12:41.329Z,22.5
2017-10-02T00:13:49.438Z,22.4
2017-10-02T00:14:57.512Z,22.5
2017-10-02T00:16:05.596Z,22.4
2017-10-02T00:17:13.680Z,22.4
2017-10-02T00:18:21.769Z,22.4
2017-10-02T00:19:29.855Z,22.4
2017-10-02T00:20:37.949Z,22.4
2017-10-02T00:21:46.032Z,22.3
2017-10-02T00:22:54.401Z,22.4
2017-10-02T00:24:02.486Z,22.4
2017-10-02T00:25:10.574Z,22.4
2017-10-02T00:26:18.666Z,22.4
2017-10-02T00:27:26.780Z,22.4
2017-10-02T00:28:34.856Z,22.3
2017-10-02T00:29:42.946Z,22.4
2017-10-02T00:30:51.034Z,22.4
2017-10-02T00:31:59.119Z,22.4
2017-10-02T00:33:07.209Z,22.3
2017-10-02T00:34:15.294Z,22.3
2017-10-02T00:35:23.383Z,22.4
2017-10-02T00:36:31.469Z,22.4
2017-10-02T00:37:39.565Z,22.2
2017-10-02T00:38:47.649Z,22.3
2017-10-02T00:39:55.733Z,22.3
2017-10-02T00:41:03.821Z,22.3
2017-10-02T00:42:11.908Z,22.3
2017-10-02T00:43:19.992Z,22.2
2017-10-02T00:44:28.081Z,22.2
2017-10-02T00:45:36.168Z,22.2
2017-10-02T00:46:44.255Z,22.3
2017-10-02T00:47:52.347Z,22.3
2017-10-02T00:49:00.430Z,22.3
2017-10-02T00:50:08.536Z,22.3
2017-10-02T00:51:16.624Z,22.2
2017-10-02T00:52:24.720Z,22.4
2017-10-02T00:53:32.799Z,22.2
2017-10-02T00:54:40.886Z,22.3
2017-10-02T00:55:48.975Z,22.3
2017-10-02T00:56:57.062Z,22.3
2017-10-02T00:58:05.149Z,22.2
2017-10-02T00:59:13.238Z,22.3
2017-10-02T01:00:21.324Z,22.2
2017-10-02T01:01:29.410Z,22.2
2017-10-02T01:02:37.498Z,22.2
2017-10-02T01:03:45.586Z,22.3
2017-10-02T01:04:53.672Z,22.2
2017-10-02T01:06:01.761Z,22.2
2017-10-02T01:07:09.848Z,22.2
2017-10-02T01:08:17.943Z,22.2
2017-10-02T01:09:26.021Z,22.2
2017-10-02T01:10:34.110Z,22.2
2017-10-02T01:11:42.197Z,22.2
2017-10-02T01:12:50.283Z,22.2
2017-10-02T01:13:58.372Z,22.2
2017-10-02T01:15:06.462Z,22.1
2017-10-02T01:16:14.549Z,22.2
2017-10-02T01:17:22.637Z,22.2
2017-10-02T01:18:30.729Z,22.2
2017-10-02T01:19:38.810Z,22.1
2017-10-02T01:20:46.901Z,22.1
2017-10-02T01:21:54.986Z,22.2
2017-10-02T01:23:03.074Z,22.1
2017-10-02T01:24:11.162Z,22.1
2017-10-02T01:25:19.281Z,22.1
2017-10-02T01:26:27.336Z,22.1
2017-10-02T01:27:35.426Z,22.1
2017-10-02T01:28:43.510Z,22.1
2017-10-02T01:29:51.595Z,22.1
2017-10-02T01:30:59.684Z,22.1
2017-10-02T01:32:07.770Z,22.1
2017-10-02T01:33:15.864Z,22.1
2017-10-02T01:34:23.957Z,22.0
2017-10-02T01:35:32.043Z,22.1
2017-10-02T01:36:40.133Z,22.0
2017-10-02T01:37:48.218Z,22.0
2017-10-02T01:38:56.326Z,22.0
2017-10-02T01:40:04.397Z,22.0
2017-10-02T01:41:12.482Z,22.0
2017-10-02T01:42:20.570Z,22.0
2017-10-02T01:43:28.658Z,22.0
2017-10-02T01:44:36.744Z,21.9
2017-10-02T01:45:44.851Z,22.0
2017-10-02T01:46:52.937Z,22.0
2017-10-02T01:48:01.044Z,21.9
2017-10-02T01:49:09.113Z,21.9
2017-10-02T01:50:17.200Z,21.9
2017-10-02T01:51:25.299Z,21.9
2017-10-02T01:52:33.385Z,22.0
2017-10-02T01:53:41.472Z,22.0
2017-10-02T01:54:49.563Z,21.9
2017-10-02T01:55:57.652Z,21.9
2017-10-02T01:57:05.742Z,21.9
2017-10-02T01:58:13.827Z,21.9
2017-10-02T01:59:21.910Z,21.9
2017-10-02T02:00:29.997Z,21.9
2017-10-02T02:01:38.086Z,21.9
2017-10-02T02:02:46.174Z,21.9
2017-10-02T02:03:54.262Z,21.9
2017-10-02T02:05:02.346Z,21.9
2017-10-02T02:06:10.454Z,21.9
2017-10-02T02:07:18.524Z,21.9
2017-10-02T02:08:26.607Z,21.8
2017-10-02T02:09:34.695Z,21.9
2017-10-02T02:10:42.782Z,21.8
2017-10-02T02:11:50.869Z,21.8
2017-10-02T02:12:58.962Z,21.8
2017-10-02T02:14:07.044Z,21.8
2017-10-02T02:15:15.133Z,21.8
2017-10-02T02:16:23.219Z,21.8
2017-10-02T02:17:31.309Z,21.8
2017-10-02T02:18:39.392Z,21.8
2017-10-02T02:19:47.480Z,21.8
2017-10-02T02:20:55.563Z,21.8
2017-10-02T02:22:03.661Z,21.8
2017-10-02T02:23:12.020Z,21.8
2017-10-02T02:24:19.836Z,21.8
2017-10-02T02:25:27.922Z,21.8
2017-10-02T02:26:36.059Z,21.7
2017-10-02T02:27:44.092Z,21.7
2017-10-02T02:28:52.181Z,21.7
2017-10-02T02:30:00.267Z,21.7
2017-10-02T02:31:08.355Z,21.7
2017-10-02T02:32:16.442Z,21.7
2017-10-02T02:33:24.529Z,21.8
2017-10-02T02:34:32.615Z,21.6
2017-10-02T02:35:40.702Z,21.7
2017-10-02T02:36:48.788Z,21.7
2017-10-02T02:37:56.874Z,21.6
2017-10-02T02:39:04.962Z,21.6
2017-10-02T02:40:13.047Z,21.7
2017-10-02T02:41:21.134Z,21.6
2017-10-02T02:42:29.223Z,21.6
2017-10-02T02:43:37.310Z,21.6
2017-10-02T02:44:45.395Z,21.7
2017-10-02T02:45:53.482Z,21.7
2017-10-02T02:47:01.566Z,21.7
2017-10-02T02:48:09.654Z,21.7
2017-10-02T02:49:17.766Z,21.8
2017-10-02T02:50:25.838Z,21.6
2017-10-02T02:51:33.924Z,21.6
2017-10-02T02:52:42.018Z,21.7
2017-10-02T02:53:50.106Z,21.6
2017-10-02T02:54:58.193Z,21.6
2017-10-02T02:56:06.280Z,21.7
2017-10-02T02:57:14.367Z,21.6
2017-10-02T02:58:22.461Z,21.6
2017-10-02T02:59:30.553Z,21.6
2017-10-02T03:00:38.640Z,21.6
2017-10-02T03:01:46.733Z,21.6
2017-10-02T03:02:54.822Z,21.6
2017-10-02T03:04:02.908Z,21.6
2017-10-02T03:05:10.994Z,21.6
2017-10-02T03:06:19.084Z,21.6
2017-10-02T03:07:27.165Z,21.6
2017-10-02T03:08:35.255Z,21.6
2017-10-02T03:09:43.343Z,21.6
2017-10-02T03:10:51.432Z,21.5
2017-10-02T03:11:59.516Z,21.6
2017-10-02T03:13:07.601Z,21.5
2017-10-02T03:14:15.720Z,21.5
2017-10-02T03:15:23.809Z,21.6
2017-10-02T03:16:31.906Z,21.5
2017-10-02T03:17:39.991Z,21.5
2017-10-02T03:18:48.077Z,21.5
2017-10-02T03:19:56.165Z,21.5
2017-10-02T03:21:04.269Z,21.5
2017-10-02T03:22:12.339Z,21.5
2017-10-02T03:23:20.424Z,21.5
2017-10-02T03:24:28.512Z,21.5
2017-10-02T03:25:36.599Z,21.5
2017-10-02T03:26:44.692Z,21.4
2017-10-02T03:27:52.782Z,21.5
2017-10-02T03:29:00.866Z,21.5
2017-10-02T03:30:09.045Z,21.4
2017-10-02T03:31:17.055Z,21.4
2017-10-02T03:32:25.170Z,21.4
2017-10-02T03:33:33.230Z,21.4
2017-10-02T03:34:41.318Z,21.4
2017-10-02T03:35:49.410Z,21.4
2017-10-02T03:36:57.497Z,21.4
2017-10-02T03:38:06.575Z,21.4
2017-10-02T03:39:13.752Z,21.4
2017-10-02T03:40:21.748Z,21.3
2017-10-02T03:41:29.841Z,21.3
2017-10-02T03:42:37.922Z,21.3
2017-10-02T03:43:46.006Z,21.3
2017-10-02T03:44:54.095Z,21.4
2017-10-02T03:46:02.191Z,21.3
2017-10-02T03:47:10.276Z,21.3
2017-10-02T03:48:18.361Z,21.3
2017-10-02T03:49:26.447Z,21.3
2017-10-02T03:50:34.535Z,21.4
2017-10-02T03:51:42.621Z,21.3
2017-10-02T03:52:50.707Z,21.3
2017-10-02T03:53:58.794Z,21.3
2017-10-02T03:55:07.055Z,21.2
2017-10-02T03:56:15.143Z,21.2
2017-10-02T03:57:23.227Z,21.2
2017-10-02T03:58:31.315Z,21.3
2017-10-02T03:59:39.401Z,21.3
2017-10-02T04:00:47.490Z,21.2
2017-10-02T04:01:55.574Z,21.3
2017-10-02T04:03:03.661Z,21.3
2017-10-02T04:04:11.747Z,21.2
2017-10-02T04:05:19.834Z,21.2
2017-10-02T04:06:27.921Z,21.2
2017-10-02T04:07:36.006Z,21.3
2017-10-02T04:08:44.102Z,21.1
2017-10-02T04:09:52.176Z,21.2
2017-10-02T04:11:00.262Z,21.1
2017-10-02T04:12:08.349Z,21.2
2017-10-02T04:13:16.445Z,21.1
2017-10-02T04:14:24.530Z,21.1
2017-10-02T04:15:32.616Z,21.2
2017-10-02T04:16:40.710Z,21.1
2017-10-02T04:17:48.790Z,21.1
2017-10-02T04:18:56.875Z,21.1
2017-10-02T04:20:04.968Z,21.1
2017-10-02T04:21:13.050Z,21.1
2017-10-02T04:22:21.135Z,21.0
2017-10-02T04:23:29.221Z,21.0
2017-10-02T04:24:37.309Z,21.0
2017-10-02T04:25:45.399Z,21.1
2017-10-02T04:26:53.481Z,21.0
2017-10-02T04:28:01.567Z,21.1
2017-10-02T04:29:09.653Z,21.1
2017-10-02T04:30:17.740Z,21.1
2017-10-02T04:31:25.828Z,21.1
2017-10-02T04:32:33.912Z,21.0
2017-10-02T04:33:41.997Z,21.1
2017-10-02T04:34:50.087Z,21.0
2017-10-02T04:35:58.171Z,21.1
2017-10-02T04:37:06.257Z,20.9
2017-10-02T04:38:14.341Z,21.1
2017-10-02T04:39:22.429Z,21.0
2017-10-02T04:40:30.516Z,21.0
2017-10-02T04:41:38.603Z,21.0
2017-10-02T04:42:46.697Z,21.0
2017-10-02T04:43:54.774Z,21.0
2017-10-02T04:45:02.860Z,20.9
2017-10-02T04:46:10.946Z,21.0
2017-10-02T04:47:19.033Z,21.0
2017-10-02T04:48:27.119Z,21.0
2017-10-02T04:49:35.207Z,20.9
2017-10-02T04:50:43.296Z,21.0
2017-10-02T04:51:51.378Z,20.9
2017-10-02T04:52:59.464Z,20.9
2017-10-02T04:54:07.550Z,20.9
2017-10-02T04:55:15.635Z,20.9
2017-10-02T04:56:23.720Z,20.9
2017-10-02T04:57:31.807Z,20.9
2017-10-02T04:58:39.895Z,20.9
2017-10-02T04:59:47.981Z,20.9
2017-10-02T05:00:56.086Z,20.9
2017-10-02T05:02:04.156Z,20.9
2017-10-02T05:03:12.238Z,20.9
2017-10-02T05:04:20.324Z,20.9
2017-10-02T05:05:28.407Z,20.9
2017-10-02T05:06:36.497Z,20.9
2017-10-02T05:07:44.587Z,20.9
2017-10-02T05:08:52.670Z,20.8
2017-10-02T05:10:00.750Z,20.9
2017-10-02T05:11:08.839Z,20.9
2017-10-02T05:12:16.928Z,20.8
2017-10-02T05:13:25.017Z,20.8
2017-10-02T05:14:33.098Z,20.8
2017-10-02T05:15:41.251Z,20.8
2017-10-02T05:16:49.271Z,20.8
2017-10-02T05:17:57.375Z,20.8
2017-10-02T05:19:05.446Z,20.8
2017-10-02T05:20:13.531Z,20.8
2017-10-02T05:21:21.617Z,20.8
2017-10-02T05:22:29.699Z,20.8
2017-10-02T05:23:37.815Z,20.8
2017-10-02T05:24:45.881Z,20.9
2017-10-02T05:25:53.968Z,20.8
2017-10-02T05:27:02.054Z,20.7
2017-10-02T05:28:10.139Z,20.7
2017-10-02T05:29:18.226Z,20.7
2017-10-02T05:30:26.324Z,20.8
2017-10-02T05:31:34.409Z,20.7
2017-10-02T05:32:42.495Z,20.7
2017-10-02T05:33:50.582Z,20.7
2017-10-02T05:34:58.667Z,20.7
2017-10-02T05:36:06.754Z,20.8
2017-10-02T05:37:14.840Z,20.7
2017-10-02T05:38:22.935Z,20.7
2017-10-02T05:39:31.023Z,20.7
2017-10-02T05:40:39.108Z,20.7
2017-10-02T05:41:47.193Z,20.6
2017-10-02T05:42:55.280Z,20.7
2017-10-02T05:44:03.366Z,20.7
2017-10-02T05:45:11.454Z,20.7
2017-10-02T05:46:19.542Z,20.7
2017-10-02T05:47:27.623Z,20.6
2017-10-02T05:48:35.711Z,20.7
2017-10-02T05:49:43.797Z,20.6
2017-10-02T05:50:51.883Z,20.7
2017-10-02T05:51:59.969Z,20.7
2017-10-02T05:53:08.055Z,20.6
2017-10-02T05:54:16.141Z,20.6
2017-10-02T05:55:24.231Z,20.6
2017-10-02T05:56:32.314Z,20.6
2017-10-02T05:57:40.398Z,20.6
2017-10-02T05:58:48.500Z,20.6
2017-10-02T05:59:56.586Z,20.6
2017-10-02T06:01:04.672Z,20.6
2017-10-02T06:02:12.758Z,20.6
2017-10-02T06:03:20.844Z,20.6
2017-10-02T06:04:28.928Z,20.5
2017-10-02T06:05:37.016Z,20.6
2017-10-02T06:06:45.113Z,20.5
2017-10-02T06:07:53.198Z,20.5
2017-10-02T06:09:01.280Z,20.5
2017-10-02T06:10:09.377Z,20.5
2017-10-02T06:11:17.461Z,20.5
2017-10-02T06:12:25.547Z,20.6
2017-10-02T06:13:33.633Z,20.5
2017-10-02T06:14:41.725Z,20.5
2017-10-02T06:15:49.809Z,20.5
2017-10-02T06:16:57.898Z,20.5
2017-10-02T06:18:05.982Z,20.6
2017-10-02T06:19:14.073Z,20.5
2017-10-02T06:20:22.201Z,20.5
2017-10-02T06:21:30.240Z,20.5
2017-10-02T06:22:38.457Z,20.5
2017-10-02T06:23:46.414Z,20.4
2017-10-02T06:24:54.564Z,20.4
2017-10-02T06:26:02.589Z,20.5
2017-10-02T06:27:10.675Z,20.4
2017-10-02T06:28:18.758Z,20.5
2017-10-02T06:29:26.846Z,20.5
2017-10-02T06:30:34.930Z,20.5
2017-10-02T06:31:43.019Z,20.5
2017-10-02T06:32:51.104Z,20.4
2017-10-02T06:33:59.191Z,20.5
2017-10-02T06:35:07.277Z,20.5
2017-10-02T06:36:15.369Z,20.5
2017-10-02T06:37:23.457Z,20.5
2017-10-02T06:38:31.703Z,20.4
2017-10-02T06:39:39.626Z,20.4
2017-10-02T06:40:47.733Z,20.4
2017-10-02T06:41:55.797Z,20.4
2017-10-02T06:43:03.885Z,20.5
2017-10-02T06:44:11.972Z,20.3
2017-10-02T06:45:20.060Z,20.5
2017-10-02T06:46:28.144Z,20.5
2017-10-02T06:47:36.230Z,20.5
2017-10-02T06:48:44.416Z,20.5
2017-10-02T06:49:52.401Z,20.4
2017-10-02T06:51:00.486Z,20.3
2017-10-02T06:52:08.573Z,20.5
2017-10-02T06:53:16.659Z,20.5
2017-10-02T06:54:24.746Z,20.5
2017-10-02T06:55:32.832Z,20.4
2017-10-02T06:56:40.917Z,20.5
2017-10-02T06:57:49.004Z,20.5
2017-10-02T06:58:57.096Z,20.5
2017-10-02T07:00:05.184Z,20.5
2017-10-02T07:01:13.271Z,20.4
2017-10-02T07:02:21.360Z,20.5
2017-10-02T07:03:29.443Z,20.5
2017-10-02T07:04:37.527Z,20.4
2017-10-02T07:05:45.614Z,20.5
2017-10-02T07:06:53.699Z,20.4
2017-10-02T07:08:01.783Z,20.4
2017-10-02T07:09:09.871Z,20.3
2017-10-02T07:10:17.958Z,20.3
2017-10-02T07:11:26.052Z,20.4
2017-10-02T07:12:34.134Z,20.4
2017-10-02T07:13:42.226Z,20.4
2017-10-02T07:14:50.323Z,20.3
2017-10-02T07:15:58.396Z,20.4
2017-10-02T07:17:06.487Z,20.3
2017-10-02T07:18:14.576Z,20.4
2017-10-02T07:19:22.662Z,20.3
2017-10-02T07:20:30.746Z,20.3
2017-10-02T07:21:38.832Z,20.4
2017-10-02T07:22:46.916Z,20.4
2017-10-02T07:23:55.003Z,20.4
2017-10-02T07:25:03.087Z,20.3
2017-10-02T07:26:11.173Z,20.4
2017-10-02T07:27:19.259Z,20.3
2017-10-02T07:28:27.346Z,20.3
2017-10-02T07:29:35.439Z,20.3
2017-10-02T07:30:43.519Z,20.3
2017-10-02T07:31:51.610Z,20.3
2017-10-02T07:32:59.688Z,20.3
2017-10-02T07:34:07.776Z,20.3
2017-10-02T07:35:15.863Z,20.3
2017-10-02T07:36:23.951Z,20.3
2017-10-02T07:37:32.035Z,20.3
2017-10-02T07:38:40.129Z,20.3
2017-10-02T07:39:48.210Z,20.2
2017-10-02T07:40:56.294Z,20.3
2017-10-02T07:42:04.394Z,20.3
2017-10-02T07:43:12.478Z,20.2
2017-10-02T07:44:20.564Z,20.2
2017-10-02T07:45:28.653Z,20.3
2017-10-02T07:46:36.737Z,20.2
2017-10-02T07:47:44.829Z,20.2
2017-10-02T07:48:52.914Z,20.3
2017-10-02T07:50:01.001Z,20.2
2017-10-02T07:51:09.086Z,20.2
2017-10-02T07:52:17.173Z,20.2
2017-10-02T07:53:25.264Z,20.2
2017-10-02T07:54:33.346Z,20.3
2017-10-02T07:55:41.469Z,20.2
2017-10-02T07:56:49.515Z,20.1
2017-10-02T07:57:58.192Z,20.2
2017-10-02T07:59:05.734Z,20.2
2017-10-02T08:00:13.813Z,20.2
2017-10-02T08:01:21.918Z,20.2
2017-10-02T08:02:29.983Z,20.2
2017-10-02T08:03:38.312Z,20.2
2017-10-02T08:04:46.166Z,20.2
2017-10-02T08:05:54.250Z,20.3
2017-10-02T08:07:02.436Z,20.2
2017-10-02T08:08:10.422Z,20.2
2017-10-02T08:09:18.507Z,20.3
2017-10-02T08:10:26.592Z,20.1
2017-10-02T08:11:34.680Z,20.2
2017-10-02T08:12:42.780Z,20.2
2017-10-02T08:13:50.861Z,20.2
2017-10-02T08:14:58.948Z,20.1
2017-10-02T08:16:07.037Z,20.2
2017-10-02T08:17:15.131Z,20.2
2017-10-02T08:18:23.205Z,20.2
2017-10-02T08:19:31.291Z,20.1
2017-10-02T08:20:39.375Z,20.1
2017-10-02T08:21:47.462Z,20.2
2017-10-02T08:22:55.628Z,20.1
2017-10-02T08:24:04.201Z,20.1
2017-10-02T08:25:11.725Z,20.1
2017-10-02T08:26:19.845Z,20.1
2017-10-02T08:27:27.948Z,20.1
2017-10-02T08:28:36.119Z,20.1
2017-10-02T08:29:44.061Z,20.2
2017-10-02T08:30:52.560Z,20.1
2017-10-02T08:32:00.235Z,20.1
2017-10-02T08:33:08.336Z,20.1
2017-10-02T08:34:16.597Z,20.1
2017-10-02T08:35:24.491Z,20.1
2017-10-02T08:36:32.578Z,20.1
2017-10-02T08:37:40.691Z,20.1
2017-10-02T08:38:48.759Z,20.1
2017-10-02T08:39:56.843Z,20.1
2017-10-02T08:41:04.930Z,20.1
2017-10-02T08:42:13.017Z,20.1
2017-10-02T08:43:21.099Z,20.1
2017-10-02T08:44:29.185Z,20.1
2017-10-02T08:45:37.271Z,20.0
2017-10-02T08:46:45.356Z,20.1
2017-10-02T08:47:53.447Z,20.1
2017-10-02T08:49:01.529Z,20.0
2017-10-02T08:50:09.615Z,20.0
2017-10-02T08:51:17.701Z,20.0
2017-10-02T08:52:25.785Z,20.0
2017-10-02T08:53:33.870Z,20.0
2017-10-02T08:54:41.960Z,20.1
2017-10-02T08:55:50.044Z,20.0
2017-10-02T08:56:58.131Z,20.0
2017-10-02T08:58:06.218Z,20.1
2017-10-02T08:59:14.304Z,20.1
2017-10-02T09:00:22.389Z,20.0
2017-10-02T09:01:30.656Z,20.1
2017-10-02T09:02:38.560Z,20.0
2017-10-02T09:03:46.716Z,20.1
2017-10-02T09:04:55.312Z,20.0
2017-10-02T09:06:02.814Z,20.1
2017-10-02T09:07:11.413Z,20.0
2017-10-02T09:08:19.674Z,20.0
2017-10-02T09:09:27.760Z,20.0
2017-10-02T09:10:35.843Z,20.1
2017-10-02T09:11:43.923Z,20.0
2017-10-02T09:12:52.014Z,20.1
2017-10-02T09:15:09.102Z,20.0
2017-10-02T09:16:17.188Z,19.9
2017-10-02T09:17:25.275Z,20.0
2017-10-02T09:18:33.359Z,20.0
2017-10-02T09:19:41.444Z,20.0
2017-10-02T09:20:49.538Z,20.0
2017-10-02T09:21:57.622Z,19.9
2017-10-02T09:23:05.707Z,20.0
2017-10-02T09:24:13.793Z,20.0
2017-10-02T09:25:21.881Z,20.0
2017-10-02T09:26:29.966Z,20.0
2017-10-02T09:27:38.050Z,20.0
2017-10-02T09:28:46.136Z,20.0
2017-10-02T09:29:54.221Z,19.9
2017-10-02T09:31:02.398Z,20.0
2017-10-02T09:32:10.437Z,20.0
2017-10-02T09:33:18.478Z,20.0
2017-10-02T09:34:26.564Z,20.0
2017-10-02T09:35:34.666Z,20.0
2017-10-02T09:36:42.739Z,20.0
2017-10-02T09:37:50.820Z,19.9
2017-10-02T09:38:58.933Z,20.0
2017-10-02T09:40:06.992Z,19.9
2017-10-02T09:41:15.350Z,20.0
2017-10-02T09:42:23.212Z,20.0
2017-10-02T09:43:31.297Z,20.0
2017-10-02T09:44:39.382Z,20.0
2017-10-02T09:45:47.469Z,20.0
2017-10-02T09:46:55.799Z,19.9
2017-10-02T09:48:03.849Z,20.0
2017-10-02T09:49:12.445Z,20.0
2017-10-02T09:50:20.064Z,19.9
2017-10-02T09:51:28.097Z,19.9
2017-10-02T09:52:36.183Z,19.9
2017-10-02T09:53:44.269Z,19.9
2017-10-02T09:54:52.354Z,20.0
2017-10-02T09:56:00.446Z,19.9
2017-10-02T09:57:08.526Z,20.0
2017-10-02T09:58:16.610Z,20.0
2017-10-02T09:59:24.718Z,19.9
2017-10-02T10:00:32.782Z,19.9
2017-10-02T10:01:40.877Z,19.9
2017-10-02T10:02:48.983Z,19.9
2017-10-02T10:03:57.084Z,19.9
2017-10-02T10:05:05.127Z,19.9
2017-10-02T10:06:13.208Z,19.9
2017-10-02T10:07:21.294Z,19.9
2017-10-02T10:08:29.382Z,19.9
2017-10-02T10:09:37.467Z,19.9
2017-10-02T10:10:45.559Z,19.9
2017-10-02T10:11:53.640Z,19.9
2017-10-02T10:13:01.741Z,19.9
2017-10-02T10:14:09.833Z,19.9
2017-10-02T10:15:17.915Z,19.9
2017-10-02T10:16:26.014Z,19.9
2017-10-02T10:17:34.087Z,19.9
2017-10-02T10:18:42.174Z,19.9
2017-10-02T10:19:53.713Z,19.9
2017-10-02T10:20:58.563Z,19.9
2017-10-02T10:22:06.651Z,19.9
2017-10-02T10:23:14.744Z,19.9
2017-10-02T10:24:22.831Z,19.9
2017-10-02T10:25:30.916Z,19.9
2017-10-02T10:26:39.001Z,20.0
2017-10-02T10:27:47.086Z,19.9
2017-10-02T10:28:55.206Z,19.9
2017-10-02T10:30:03.268Z,19.9
2017-10-02T10:31:11.564Z,19.9
2017-10-02T10:32:19.544Z,19.9
2017-10-02T10:33:27.860Z,19.9
2017-10-02T10:34:35.615Z,20.0
2017-10-02T10:35:44.651Z,19.9
2017-10-02T10:36:52.738Z,19.9
2017-10-02T10:38:00.823Z,19.9
2017-10-02T10:39:09.118Z,19.9
2017-10-02T10:40:16.994Z,19.9
2017-10-02T10:41:25.790Z,19.9
2017-10-02T10:42:33.172Z,19.9
2017-10-02T10:43:41.550Z,19.9
2017-10-02T10:44:49.337Z,19.9
2017-10-02T10:45:57.422Z,19.9
2017-10-02T10:47:05.557Z,19.9
2017-10-02T10:48:13.603Z,19.9
2017-10-02T10:49:21.680Z,19.9
2017-10-02T10:50:29.764Z,19.8
2017-10-02T10:51:37.854Z,19.9
2017-10-02T10:52:46.551Z,19.9
2017-10-02T10:53:54.025Z,19.9
2017-10-02T10:55:02.111Z,19.9
2017-10-02T10:56:10.242Z,19.8
2017-10-02T10:57:18.286Z,19.9
2017-10-02T10:58:26.369Z,19.9
2017-10-02T10:59:34.458Z,19.8
2017-10-02T11:00:42.539Z,19.9
2017-10-02T11:01:50.625Z,19.9
2017-10-02T11:02:58.709Z,19.9
2017-10-02T11:04:06.795Z,19.8
2017-10-02T11:05:14.882Z,19.8
2017-10-02T11:06:22.967Z,19.9
2017-10-02T11:07:31.054Z,19.9
2017-10-02T11:08:39.141Z,19.9
2017-10-02T11:09:47.402Z,19.9
2017-10-02T11:10:55.490Z,19.9
2017-10-02T11:12:03.574Z,19.9
2017-10-02T11:13:11.659Z,19.9
2017-10-02T11:14:19.748Z,19.8
2017-10-02T11:15:27.842Z,19.8
2017-10-02T11:16:35.940Z,19.9
2017-10-02T11:17:44.004Z,19.9
2017-10-02T11:18:52.088Z,19.9
2017-10-02T11:20:00.386Z,19.8
2017-10-02T11:21:08.259Z,19.8
2017-10-02T11:22:16.369Z,19.8
2017-10-02T11:23:24.441Z,19.8
2017-10-02T11:24:32.527Z,19.8
2017-10-02T11:25:40.617Z,19.8
2017-10-02T11:26:48.697Z,19.8
2017-10-02T11:27:56.791Z,19.8
2017-10-02T11:29:04.885Z,19.8
2017-10-02T11:30:12.972Z,19.9
2017-10-02T11:31:21.056Z,19.8
2017-10-02T11:32:29.140Z,19.9
2017-10-02T11:33:37.226Z,19.8
2017-10-02T11:34:45.311Z,19.8
2017-10-02T11:35:53.404Z,19.8
2017-10-02T11:37:01.486Z,19.9
2017-10-02T11:38:09.569Z,19.8
2017-10-02T11:39:17.656Z,19.9
2017-10-02T11:40:25.743Z,19.9
2017-10-02T11:41:33.828Z,19.9
2017-10-02T11:42:41.913Z,19.9
2017-10-02T11:43:50.002Z,19.9
2017-10-02T11:44:58.086Z,19.9
2017-10-02T11:46:06.891Z,19.9
2017-10-02T11:47:14.979Z,19.9
2017-10-02T11:48:23.061Z,19.9
2017-10-02T11:49:31.151Z,19.9
2017-10-02T11:50:39.238Z,19.9
2017-10-02T11:51:47.362Z,19.9
2017-10-02T11:52:55.407Z,19.9
2017-10-02T11:54:03.492Z,19.9
2017-10-02T11:55:11.577Z,19.9
2017-10-02T11:56:19.662Z,19.9
2017-10-02T11:57:27.759Z,19.9
2017-10-02T11:58:35.843Z,19.9
2017-10-02T11:59:43.930Z,19.9
2017-10-02T12:00:52.020Z,20.0
2017-10-02T12:02:00.115Z,20.0
2017-10-02T12:03:08.206Z,19.9
2017-10-02T12:04:16.287Z,20.0
2017-10-02T12:05:24.376Z,20.0
2017-10-02T12:06:32.536Z,20.0
2017-10-02T12:07:40.544Z,20.0
2017-10-02T12:08:48.630Z,20.0
2017-10-02T12:09:56.720Z,20.0
2017-10-02T12:11:04.807Z,20.0
2017-10-02T12:12:12.908Z,20.0
2017-10-02T12:13:20.979Z,19.9
2017-10-02T12:14:29.066Z,20.0
2017-10-02T12:15:37.152Z,20.0
2017-10-02T12:16:45.234Z,20.0
2017-10-02T12:17:53.326Z,20.0
2017-10-02T12:19:01.405Z,20.1
2017-10-02T12:20:09.491Z,20.0
2017-10-02T12:21:17.579Z,20.1
2017-10-02T12:22:25.664Z,20.1
2017-10-02T12:23:33.751Z,20.1
2017-10-02T12:24:41.837Z,20.1
2017-10-02T12:25:49.921Z,20.1
2017-10-02T12:26:58.008Z,20.1
2017-10-02T12:28:06.091Z,20.2
2017-10-02T12:29:14.178Z,20.2
2017-10-02T12:30:22.264Z,20.2
2017-10-02T12:31:30.350Z,20.2
2017-10-02T12:32:38.435Z,20.2
2017-10-02T12:33:46.521Z,20.2
2017-10-02T12:34:54.621Z,20.2
2017-10-02T12:36:02.901Z,20.3
2017-10-02T12:37:10.781Z,20.2
2017-10-02T12:38:18.880Z,20.2
2017-10-02T12:39:26.949Z,20.2
2017-10-02T12:40:35.035Z,20.3
2017-10-02T12:41:43.124Z,20.3
2017-10-02T12:42:51.208Z,20.4
2017-10-02T12:43:59.293Z,20.3
2017-10-02T12:45:07.379Z,20.4
2017-10-02T12:46:15.466Z,20.4
2017-10-02T12:47:23.553Z,20.4
2017-10-02T12:48:31.656Z,20.3
2017-10-02T12:49:39.728Z,20.3
2017-10-02T12:50:47.809Z,20.5
2017-10-02T12:51:55.897Z,20.5
2017-10-02T12:53:03.983Z,20.5
2017-10-02T12:54:12.068Z,20.5
2017-10-02T12:55:20.160Z,20.5
2017-10-02T12:56:28.240Z,20.5
2017-10-02T12:57:36.323Z,20.5
2017-10-02T12:58:44.412Z,20.5
2017-10-02T12:59:52.496Z,20.6
2017-10-02T13:01:00.584Z,20.6
2017-10-02T13:02:08.670Z,20.5
2017-10-02T13:03:16.774Z,20.5
2017-10-02T13:04:24.842Z,20.5
2017-10-02T13:05:32.932Z,20.5
2017-10-02T13:06:41.013Z,20.6
2017-10-02T13:07:49.096Z,20.6
2017-10-02T13:08:57.185Z,20.6
2017-10-02T13:10:05.273Z,20.6
2017-10-02T13:11:13.357Z,20.7
2017-10-02T13:12:21.442Z,20.7
2017-10-02T13:13:29.529Z,20.7
2017-10-02T13:14:37.617Z,20.7
2017-10-02T13:15:45.701Z,20.7
2017-10-02T13:16:53.786Z,20.7
2017-10-02T13:18:01.877Z,20.8
2017-10-02T13:19:09.988Z,20.8
2017-10-02T13:20:18.044Z,20.7
2017-10-02T13:21:26.130Z,20.8
2017-10-02T13:22:34.217Z,20.9
2017-10-02T13:23:42.304Z,20.8
2017-10-02T13:24:50.395Z,20.8
2017-10-02T13:25:58.475Z,20.8
2017-10-02T13:27:06.563Z,20.9
2017-10-02T13:28:14.668Z,20.8
2017-10-02T13:29:22.734Z,20.9
2017-10-02T13:30:31.108Z,20.8
2017-10-02T13:31:38.905Z,20.9
2017-10-02T13:32:47.005Z,20.9
2017-10-02T13:33:55.144Z,20.9
2017-10-02T13:35:03.181Z,21.0
2017-10-02T13:36:11.267Z,20.9
2017-10-02T13:37:19.352Z,20.9
2017-10-02T13:38:27.456Z,21.0
2017-10-02T13:39:35.527Z,20.9
2017-10-02T13:40:44.097Z,20.9
2017-10-02T13:41:52.145Z,20.9
2017-10-02T13:43:00.136Z,21.0
2017-10-02T13:44:08.522Z,21.1
2017-10-02T13:45:16.203Z,21.0
2017-10-02T13:46:24.288Z,21.0
2017-10-02T13:47:32.385Z,21.0
2017-10-02T13:48:40.473Z,21.1
2017-10-02T13:49:48.558Z,21.0
2017-10-02T13:50:56.645Z,21.1
2017-10-02T13:52:04.733Z,21.1
2017-10-02T13:53:12.828Z,21.0
2017-10-02T13:54:20.909Z,21.1
2017-10-02T13:55:28.994Z,21.1
2017-10-02T13:56:37.080Z,21.1
2017-10-02T13:57:45.375Z,21.1
2017-10-02T13:58:53.463Z,21.1
2017-10-02T14:00:01.549Z,21.2
2017-10-02T14:01:09.636Z,21.2
2017-10-02T14:02:17.725Z,21.2
2017-10-02T14:03:25.808Z,21.1
2017-10-02T14:04:33.894Z,21.1
2017-10-02T14:05:41.986Z,21.2
2017-10-02T14:06:50.069Z,21.2
2017-10-02T14:07:58.156Z,21.2
2017-10-02T14:09:06.242Z,21.3
2017-10-02T14:10:14.329Z,21.3
2017-10-02T14:11:22.417Z,21.3
2017-10-02T14:12:30.502Z,21.3
2017-10-02T14:13:38.602Z,21.3
2017-10-02T14:14:46.689Z,21.3
2017-10-02T14:15:54.772Z,21.3
2017-10-02T14:17:02.857Z,21.3
2017-10-02T14:18:10.953Z,21.3
2017-10-02T14:19:19.044Z,21.4
2017-10-02T14:20:27.133Z,21.4
2017-10-02T14:21:35.212Z,21.4
2017-10-02T14:22:43.298Z,21.3
2017-10-02T14:23:51.384Z,21.3
2017-10-02T14:24:59.473Z,21.3
2017-10-02T14:26:07.559Z,21.4
2017-10-02T14:27:15.644Z,21.3
2017-10-02T14:28:23.731Z,21.4
2017-10-02T14:29:31.820Z,21.4
2017-10-02T14:30:39.904Z,21.4
2017-10-02T14:31:48.068Z,21.5
2017-10-02T14:32:56.080Z,21.4
2017-10-02T14:34:04.165Z,21.4
2017-10-02T14:35:12.253Z,21.5
2017-10-02T14:36:20.338Z,21.4
2017-10-02T14:37:28.425Z,21.5
2017-10-02T14:38:36.510Z,21.5
2017-10-02T14:39:44.597Z,21.5
2017-10-02T14:40:52.683Z,21.5
2017-10-02T14:42:00.770Z,21.6
2017-10-02T14:43:08.865Z,21.5
2017-10-02T14:44:16.953Z,21.5
2017-10-02T14:45:25.032Z,21.5
2017-10-02T14:46:33.119Z,21.5
2017-10-02T14:47:41.204Z,21.6
2017-10-02T14:48:49.290Z,21.6
2017-10-02T14:49:57.377Z,21.6
2017-10-02T14:51:05.464Z,21.6
2017-10-02T14:52:13.552Z,21.6
2017-10-02T14:53:21.643Z,21.6
2017-10-02T14:54:29.731Z,21.6
2017-10-02T14:55:37.817Z,21.6
2017-10-02T14:56:45.900Z,21.7
2017-10-02T14:57:53.989Z,21.6
2017-10-02T14:59:02.074Z,21.6
2017-10-02T15:00:10.157Z,21.6
2017-10-02T15:01:18.244Z,21.6
2017-10-02T15:02:26.332Z,21.6
2017-10-02T15:03:34.418Z,21.6
2017-10-02T15:04:42.508Z,21.6
2017-10-02T15:05:50.603Z,21.7
2017-10-02T15:06:58.691Z,21.7